METAR Data
IDs: Format: Raw Decoded Include TAF

Data at: 0028 UTC 26 Oct 2021

PARC 260022Z AUTO 00000KT 3/4SM -SN BR FEW007 BKN013 OVC021 M02/M04 A2913 RMK AO2 UPE02SNB02 P0000 FZRANO
PARC 260019Z AUTO 00000KT 1SM -SN BR FEW009 SCT015 OVC021 M02/M04 A2913 RMK AO2 UPE02SNB02 P0000 FZRANO
PARC 260004Z AUTO 00000KT 1 3/4SM -SN BR OVC020 M02/M03 A2913 RMK AO2 UPE02SNB02 P0000 FZRANO
PARC 252356Z AUTO 00000KT 3SM UP BR OVC020 M02/M03 A2913 RMK AO2 UPB09SNE09 SLP911 P0000 60000 T10171033 11017 21044 51002 FZRANO
PARC 252332Z AUTO 00000KT 10SM UP SCT013 OVC018 M02/M03 A2913 RMK AO2 UPB09SNE09 P0000 FZRANO
PARC 252256Z AUTO 00000KT 6SM -SN BR OVC013 M02/M03 A2913 RMK AO2 UPB43E46SNB46 SLP912 P0000 T10221033 FZRANO
PARC 252248Z AUTO 00000KT 8SM -SN OVC013 M02/M04 A2913 RMK AO2 UPB43E46SNB46 P0000 FZRANO
PARC 252156Z AUTO 34003KT 10SM OVC015 M02/M04 A2913 RMK AO2 SLP913 T10221039 FZRANO
PARC 252056Z AUTO 33004KT 10SM BKN017 OVC050 M02/M04 A2912 RMK AO2 SLP912 60000 T10221039 56003 FZRANO
PARC 252054Z AUTO 32003KT 10SM BKN017 OVC050 M02/M04 A2912 RMK AO2 FZRANO
PARC 252040Z AUTO 32003KT 10SM SCT017 OVC050 M03/M04 A2912 RMK AO2 FZRANO
PARC 251956Z AUTO 00000KT 10SM OVC019 M03/M04 A2913 RMK AO2 SLP915 T10281039 FZRANO
PARC 251856Z AUTO 34003KT 9SM OVC021 M04/M05 A2913 RMK AO2 SNE53 SLP917 P0000 T10391050 FZRANO
PARC 251832Z AUTO 00000KT 4SM -SN BR OVC021 M04/M05 A2913 RMK AO2 P0000 FZRANO
PARC 251824Z AUTO 00000KT 2 1/2SM -SN BR OVC023 M04/M05 A2913 RMK AO2 P0000 FZRANO
PARC 251756Z AUTO 05003KT 1 1/4SM -SN BR OVC023 M04/M05 A2913 RMK AO2 SLP919 P0001 60001 T10441050 11044 21056 56008 FZRANO
PARC 251729Z AUTO 02003KT 1 1/2SM -SN BR FEW006 BKN025 OVC033 M04/M05 A2914 RMK AO2 P0001 FZRANO
PARC 251711Z AUTO 36003KT 1 3/4SM -SN BR FEW006 SCT021 OVC031 M04/M05 A2914 RMK AO2 P0001 FZRANO
PARC 251702Z AUTO 00000KT 2 1/2SM -SN BR FEW006 SCT020 OVC029 M04/M06 A2914 RMK AO2 P0000 FZRANO
PARC 251656Z AUTO 36003KT 4SM -SN BR OVC029 M04/M06 A2914 RMK AO2 SLP919 P0000 T10441056 FZRANO
PARC 251635Z AUTO 00000KT 3SM -SN BR OVC029 M04/M06 A2914 RMK AO2 P0000 FZRANO
PARC 251627Z AUTO 00000KT 2 1/2SM -SN BR OVC029 M04/M06 A2914 RMK AO2 P0000 FZRANO
PARC 251616Z AUTO 03003KT 1 3/4SM -SN BR BKN027 OVC031 M04/M06 A2914 RMK AO2 P0000 FZRANO
PARC 251556Z AUTO 00000KT 5SM -SN BR SCT021 OVC027 M05/M06 A2915 RMK AO2 SLP923 P0000 T10501056 FZRANO
PARC 251456Z AUTO 01003KT 9SM -SN OVC025 M05/M06 A2916 RMK AO2 SLP927 P0000 60000 T10501061 56008 FZRANO
PARC 251356Z AUTO 31004KT 4SM -SN BR BKN027 OVC032 M05/M06 A2917 RMK AO2 SNB16 SLP932 P0000 T10501056 FZRANO
PARC 251354Z AUTO 30005KT 4SM -SN BR BKN027 OVC032 M05/M06 A2917 RMK AO2 SNB16 P0000 FZRANO
PARC 251256Z AUTO 00000KT 10SM OVC030 M05/M06 A2919 RMK AO2 SLP936 T10501056 FZRANO
PARC 251156Z AUTO 36003KT 10SM OVC032 M06/M07 A2919 RMK AO2 SLP938 T10561067 11056 21094 58017 FZRANO
PARC 251056Z AUTO 00000KT 10SM BKN032 OVC042 M06/M07 A2921 RMK AO2 SLP943 T10611072 FZRANO
PARC 250956Z AUTO 00000KT 10SM OVC042 M07/M08 A2923 RMK AO2 SLP952 T10721083 FZRANO
PARC 250856Z AUTO 00000KT 10SM FEW032 OVC048 M08/M09 A2925 RMK AO2 SLP957 T10831094 410171094 56006 FZRANO
PARC 250756Z AUTO 03004KT 10SM OVC050 M08/M09 A2925 RMK AO2 SLP961 T10831094 FZRANO
PARC 250656Z AUTO 02004KT 10SM CLR M08/M10 A2926 RMK AO2 SLP964 T10831100 FZRANO
PARC 250556Z AUTO 05003KT 10SM FEW034 M08/M09 A2927 RMK AO2 SLP965 T10781089 11056 21078 58016 FZRANO
PARC 250456Z AUTO 33003KT 10SM OVC034 M07/M08 A2929 RMK AO2 SLP974 T10721083 FZRANO
PARC 250356Z AUTO 00000KT 10SM OVC110 M07/M08 A2930 RMK AO2 SLP977 T10671078 FZRANO
PARC 250256Z AUTO 34004KT 9SM BKN035 BKN070 OVC080 M06/M07 A2932 RMK AO2 SLP982 T10611067 58007 FZRANO
PARC 250156Z AUTO 07003KT 10SM SCT037 BKN110 M07/M08 A2933 RMK AO2 SLP986 T10721078 FZRANO
PARC 250056Z AUTO 28003KT 10SM CLR M06/M07 A2933 RMK AO2 SLP985 T10611072 FZRANO
PARC 242356Z AUTO 31003KT 10SM CLR M06/M08 A2934 RMK AO2 SLP987 T10561078 11017 21072 58007 FZRANO
PARC 242256Z AUTO 00000KT 10SM CLR M03/M06 A2935 RMK AO2 SLP987 T10281056 FZRANO
PARC 242156Z AUTO 00000KT 10SM CLR M06/M07 A2936 RMK AO2 SLP995 T10561072 FZRANO
PARC 242056Z AUTO 00000KT 10SM CLR M03/M07 A2936 RMK AO2 SLP992 T10331067 58006 FZRANO
PARC 241956Z AUTO 00000KT 10SM CLR M06/M08 A2938 RMK AO2 SLP999 T10611083 FZRANO
PARC 241856Z AUTO 00000KT 10SM CLR M06/M07 A2937 RMK AO2 SLP997 T10561067 FZRANO
PARC 241756Z AUTO 05003KT 10SM OVC039 M06/M07 A2938 RMK AO2 SLP000 T10611072 11039 21061 51006 FZRANO
PARC 241656Z AUTO 00000KT 10SM OVC041 M06/M07 A2938 RMK AO2 SLP999 T10611067 FZRANO
PARC 241556Z AUTO 00000KT 8SM OVC120 M06/M07 A2938 RMK AO2 SLP998 T10611067 FZRANO
PARC 241456Z AUTO 36004KT 10SM SCT004 M06/M07 A2936 RMK AO2 SLP993 T10611067 51007 FZRANO
PARC 241435Z AUTO 02004KT 10SM BKN004 M06/M07 A2936 RMK AO2 FZRANO
PARC 241416Z AUTO 04003KT 10SM FEW004 M06/M06 A2936 RMK AO2 FZRANO
PARC 241356Z AUTO 00000KT 10SM SCT041 M06/M06 A2935 RMK AO2 SLP990 T10561061 FZRANO
PARC 241256Z AUTO 33003KT 10SM SCT007 OVC041 M04/M06 A2935 RMK AO2 SLP988 T10441056 FZRANO
PARC 241229Z AUTO 35005KT 10SM OVC007 M04/M04 A2935 RMK AO2 FZRANO